Time;durP1;ratioP1;P1;durP2;ratioP2;P2;SDS_P1;SDS_P2;PMS_P1;PMS_P2;Temp;Humidity;BMP_temperature;BMP_pressure;BME280_temperature;BME280_humidity;BME280_pressure;Samples;Min_cycle;Max_cycle;Signal;HPM_P1;HPM_P2
2021/12/14 00:02:04;;;;;;;200.15;149.27;;;21.20;44.30;;;;;;5143722;55;21476;-35
2021/12/14 00:07:10;;;;;;;199.18;151.57;;;21.20;44.30;;;;;;4787123;55;21484;-39
2021/12/14 00:17:44;;;;;;;208.65;155.15;;;21.20;44.20;;;;;;4748235;55;21106;-39
2021/12/14 00:28:48;;;;;;;199.87;151.00;;;21.20;44.30;;;;;;5068841;54;21548;-39
2021/12/14 00:33:53;;;;;;;204.73;152.18;;;21.20;44.10;;;;;;4834641;55;21436;-37
2021/12/14 00:38:57;;;;;;;210.70;154.48;;;21.10;44.10;;;;;;4864369;55;21050;-41
2021/12/14 00:43:59;;;;;;;201.48;150.40;;;21.10;44.10;;;;;;4946813;55;21001;-38
2021/12/14 00:49:00;;;;;;;196.63;146.77;;;21.10;44.10;;;;;;4985258;55;21060;-40
2021/12/14 00:54:05;;;;;;;204.87;151.32;;;21.10;44.60;;;;;;4748156;58;21061;-40
2021/12/14 00:59:08;;;;;;;201.73;144.93;;;21.10;44.00;;;;;;4929178;55;20989;-35
2021/12/14 01:04:25;;;;;;;199.07;144.50;;;21.10;44.00;;;;;;4808241;55;21472;-40
2021/12/14 01:09:30;;;;;;;200.77;148.05;;;21.10;44.00;;;;;;4945792;55;21105;-37
2021/12/14 01:14:46;;;;;;;198.15;144.50;;;21.10;44.00;;;;;;5168232;55;21454;-39
2021/12/14 01:19:55;;;;;;;200.18;148.93;;;21.10;43.90;;;;;;4857129;55;21572;-32
2021/12/14 01:25:22;;;;;;;205.80;152.43;;;21.00;43.90;;;;;;5153368;55;21492;-35
2021/12/14 01:31:16;;;;;;;204.95;151.70;;;21.10;43.90;;;;;;4883009;54;21098;-36
2021/12/14 01:36:25;;;;;;;198.87;147.23;;;21.00;43.80;;;;;;4839482;55;21467;-32
2021/12/14 01:41:26;;;;;;;192.87;144.35;;;21.00;43.80;;;;;;4822319;55;21531;-40
2021/12/14 01:46:41;;;;;;;188.57;141.27;;;21.00;43.80;;;;;;4747936;58;20994;-40
2021/12/14 01:51:48;;;;;;;182.30;135.65;;;21.00;43.80;;;;;;4759092;55;21073;-39
2021/12/14 01:56:49;;;;;;;196.30;149.00;;;21.00;43.90;;;;;;4869815;55;21082;-37
2021/12/14 02:02:09;;;;;;;199.60;148.00;;;21.00;43.80;;;;;;4910278;55;21124;-39
2021/12/14 02:07:13;;;;;;;186.07;139.48;;;21.00;43.80;;;;;;4985769;55;21547;-34
2021/12/14 02:12:17;;;;;;;190.00;138.88;;;21.00;43.70;;;;;;4748379;58;21014;-37
2021/12/14 02:17:22;;;;;;;180.85;135.18;;;21.00;43.80;;;;;;4903845;55;20994;-38
2021/12/14 02:22:23;;;;;;;187.43;136.82;;;21.00;43.80;;;;;;4938788;55;21002;-37
2021/12/14 02:27:23;;;;;;;187.85;142.50;;;21.00;43.70;;;;;;4865341;54;21029;-38
2021/12/14 02:32:26;;;;;;;185.55;136.70;;;21.00;43.70;;;;;;5042103;54;21006;-37
2021/12/14 02:37:47;;;;;;;181.98;136.85;;;21.00;43.70;;;;;;4924256;55;20993;-37
2021/12/14 02:42:51;;;;;;;199.73;147.77;;;21.00;43.70;;;;;;4758890;55;21074;-39
2021/12/14 02:47:52;;;;;;;182.68;136.70;;;21.00;43.60;;;;;;4949617;55;21006;-43
2021/12/14 02:52:53;;;;;;;191.45;142.45;;;21.00;43.70;;;;;;4792367;55;21076;-41
2021/12/14 02:57:57;;;;;;;182.30;137.27;;;20.90;43.60;;;;;;4946256;54;20998;-33
2021/12/14 03:03:00;;;;;;;184.87;137.20;;;20.90;43.60;;;;;;4747928;58;21484;-39
2021/12/14 03:08:16;;;;;;;190.00;138.12;;;20.90;43.60;;;;;;4837215;55;21082;-39
2021/12/14 03:13:20;;;;;;;190.48;141.73;;;20.90;43.60;;;;;;4778311;55;21524;-31
2021/12/14 03:18:31;;;;;;;185.85;141.93;;;20.90;43.50;;;;;;4747972;55;20994;-40
2021/12/14 03:23:53;;;;;;;180.30;136.73;;;20.90;43.60;;;;;;5234096;55;20981;-39
2021/12/14 03:28:57;;;;;;;183.95;139.30;;;20.90;43.50;;;;;;5059868;54;21086;-40
2021/12/14 03:34:06;;;;;;;175.75;130.57;;;20.90;43.60;;;;;;4748631;55;21062;-42
2021/12/14 03:39:32;;;;;;;181.50;136.95;;;20.90;43.50;;;;;;4748451;58;20997;-38
2021/12/14 03:44:40;;;;;;;178.82;133.95;;;20.90;43.50;;;;;;4785352;55;21009;-39
2021/12/14 03:49:52;;;;;;;177.50;129.65;;;20.90;43.50;;;;;;4747797;58;21496;-36
2021/12/14 03:54:54;;;;;;;179.82;136.57;;;20.90;43.60;;;;;;4856873;55;21546;-41
2021/12/14 03:59:55;;;;;;;172.50;129.80;;;20.90;43.60;;;;;;4952257;55;21097;-36
2021/12/14 04:05:04;;;;;;;178.52;133.07;;;20.90;43.50;;;;;;4812549;55;20998;-41
2021/12/14 04:10:17;;;;;;;170.05;129.82;;;20.90;43.50;;;;;;4863126;55;21496;-38
2021/12/14 04:15:19;;;;;;;169.20;127.35;;;20.80;43.40;;;;;;4834022;55;21452;-38
2021/12/14 04:20:26;;;;;;;177.68;133.25;;;20.80;43.40;;;;;;4835746;55;21072;-38
2021/12/14 04:25:32;;;;;;;161.73;125.45;;;20.80;43.40;;;;;;4940414;55;21057;-41
2021/12/14 04:30:35;;;;;;;162.90;125.10;;;20.80;43.40;;;;;;4962715;54;21097;-39
2021/12/14 04:35:39;;;;;;;171.27;128.00;;;20.80;43.40;;;;;;4829313;55;21061;-37
2021/12/14 04:56:46;;;;;;;162.48;124.18;;;20.80;43.40;;;;;;4747926;55;21025;-38
2021/12/14 05:01:48;;;;;;;165.02;127.20;;;20.80;43.40;;;;;;5081090;55;21587;-36
2021/12/14 05:06:56;;;;;;;162.62;121.95;;;20.80;43.40;;;;;;4929695;55;21075;-37
2021/12/14 05:12:13;;;;;;;170.55;129.48;;;20.80;43.40;;;;;;4747446;58;21456;-38
2021/12/14 05:17:21;;;;;;;164.45;125.78;;;20.80;43.40;;;;;;5234550;55;20978;-35
2021/12/14 05:22:25;;;;;;;158.98;121.35;;;20.80;43.50;;;;;;4818823;55;21073;-35
2021/12/14 05:27:36;;;;;;;158.23;123.20;;;20.80;43.50;;;;;;4909284;55;21038;-40
2021/12/14 05:32:39;;;;;;;159.90;122.65;;;20.80;43.50;;;;;;4748296;58;21472;-36
2021/12/14 05:37:47;;;;;;;157.52;119.22;;;20.70;43.40;;;;;;4887959;55;20982;-35
2021/12/14 05:43:07;;;;;;;156.50;123.03;;;20.70;43.50;;;;;;4795287;55;21444;-28
2021/12/14 05:48:10;;;;;;;154.60;114.82;;;20.70;43.60;;;;;;5068206;55;21492;-35
2021/12/14 05:53:20;;;;;;;158.75;123.68;;;20.70;43.80;;;;;;4973870;55;20974;-38
2021/12/14 05:58:23;;;;;;;156.52;121.00;;;20.70;44.00;;;;;;4748070;55;21049;-41
2021/12/14 06:03:29;;;;;;;154.15;121.10;;;20.70;44.10;;;;;;4748210;58;20958;-39
2021/12/14 06:08:34;;;;;;;147.73;115.55;;;20.70;44.10;;;;;;4805808;55;21034;-39
2021/12/14 06:13:39;;;;;;;150.25;117.95;;;20.70;44.10;;;;;;4862769;55;21026;-35
2021/12/14 06:18:40;;;;;;;152.55;118.43;;;20.70;44.20;;;;;;4748175;56;21567;-36
2021/12/14 06:23:41;;;;;;;146.13;115.40;;;20.70;44.20;;;;;;4747997;58;20990;-37
2021/12/14 06:28:42;;;;;;;146.30;113.25;;;20.70;44.10;;;;;;4747376;55;21106;-38
2021/12/14 06:33:43;;;;;;;151.65;114.25;;;20.70;44.20;;;;;;4769173;55;21068;-40
2021/12/14 06:38:43;;;;;;;148.18;114.32;;;20.70;44.10;;;;;;4893624;54;21074;-34
2021/12/14 06:43:49;;;;;;;151.57;117.07;;;20.70;44.10;;;;;;4879553;55;20994;-38
2021/12/14 06:48:56;;;;;;;152.60;116.22;;;20.60;44.10;;;;;;4747809;58;21069;-37
2021/12/14 06:54:00;;;;;;;143.60;111.30;;;20.60;44.00;;;;;;5037851;55;20982;-35
2021/12/14 06:59:08;;;;;;;153.87;118.93;;;20.60;44.00;;;;;;5046656;55;20993;-37
2021/12/14 07:04:18;;;;;;;151.27;116.57;;;20.60;44.00;;;;;;4839810;55;21010;-37
2021/12/14 07:09:35;;;;;;;151.48;115.72;;;20.60;44.00;;;;;;4856308;55;21017;-38
2021/12/14 07:14:40;;;;;;;;;;;20.60;44.00;;;;;;4814127;55;21005;-39
2021/12/14 07:20:45;;;;;;;152.23;117.37;;;20.70;44.00;;;;;;4788335;55;20123;-36
2021/12/14 07:25:57;;;;;;;154.52;116.40;;;20.60;44.10;;;;;;4781583;55;21013;-35
2021/12/14 07:31:24;;;;;;;151.25;117.05;;;20.60;44.00;;;;;;4954138;55;21029;-35
2021/12/14 07:36:29;;;;;;;149.40;114.57;;;20.60;44.00;;;;;;4825998;55;20974;-33
2021/12/14 07:41:35;;;;;;;157.73;120.57;;;20.60;44.00;;;;;;4773432;55;21073;-35
2021/12/14 07:46:55;;;;;;;152.75;112.32;;;20.60;44.00;;;;;;4780250;55;21540;-37
2021/12/14 07:52:11;;;;;;;145.52;110.65;;;20.60;44.10;;;;;;4790372;55;21073;-31
2021/12/14 07:57:15;;;;;;;154.75;119.90;;;20.60;44.00;;;;;;4748010;55;20982;-33
2021/12/14 08:02:35;;;;;;;160.18;121.87;;;20.60;44.00;;;;;;4799433;55;20994;-36
2021/12/14 08:07:41;;;;;;;148.62;112.50;;;20.60;44.00;;;;;;4747740;58;21069;-33
2021/12/14 08:12:54;;;;;;;152.12;117.65;;;20.60;44.00;;;;;;4787058;55;21065;-35
2021/12/14 08:18:21;;;;;;;154.40;117.50;;;20.60;43.90;;;;;;4748262;58;21025;-35
2021/12/14 08:23:27;;;;;;;155.50;119.43;;;20.60;43.90;;;;;;4754592;55;20992;-32
2021/12/14 08:28:28;;;;;;;153.52;116.75;;;20.60;44.20;;;;;;4852341;55;21050;-36
2021/12/14 08:33:31;;;;;;;154.02;117.82;;;20.70;44.50;;;;;;4894335;54;20998;-36
2021/12/14 08:38:34;;;;;;;153.55;114.30;;;20.70;44.70;;;;;;4971476;55;21070;-31
2021/12/14 08:43:36;;;;;;;152.40;113.57;;;20.70;44.90;;;;;;4812590;55;21452;-34
2021/12/14 08:48:41;;;;;;;159.48;119.75;;;20.80;45.20;;;;;;4776428;55;21025;-29
2021/12/14 08:53:50;;;;;;;152.02;115.80;;;20.80;45.60;;;;;;4834227;55;21018;-30
2021/12/14 08:58:51;;;;;;;164.35;121.30;;;20.90;45.80;;;;;;4747566;58;21014;-34
2021/12/14 09:03:58;;;;;;;152.73;112.68;;;20.90;46.20;;;;;;5067621;55;21029;-34
2021/12/14 09:09:02;;;;;;;155.30;115.37;;;20.90;46.20;;;;;;4746875;58;22088;-35
2021/12/14 09:14:09;;;;;;;157.55;116.72;;;21.00;46.50;;;;;;4897719;55;21500;-28
2021/12/14 09:19:18;;;;;;;158.53;121.10;;;20.90;46.70;;;;;;4757310;55;21050;-30
2021/12/14 09:24:22;;;;;;;164.02;120.03;;;21.00;46.80;;;;;;4843476;55;21057;-36
2021/12/14 09:29:25;;;;;;;155.93;113.75;;;21.00;47.00;;;;;;4878782;55;21037;-33
2021/12/14 09:34:29;;;;;;;161.10;118.45;;;21.00;47.20;;;;;;4941439;55;21053;-28
2021/12/14 09:39:36;;;;;;;157.10;119.65;;;21.10;47.50;;;;;;4817873;55;20993;-33
2021/12/14 09:44:39;;;;;;;165.75;125.60;;;21.10;47.60;;;;;;4747605;58;21019;-33
2021/12/14 09:49:42;;;;;;;172.20;126.87;;;21.20;47.80;;;;;;4755519;55;21018;-35
2021/12/14 09:54:43;;;;;;;168.18;127.00;;;21.20;48.20;;;;;;4790033;55;20994;-31
2021/12/14 09:59:46;;;;;;;171.75;127.70;;;21.30;48.50;;;;;;4747717;58;21070;-35
2021/12/14 10:04:55;;;;;;;170.62;126.90;;;21.30;48.10;;;;;;4748351;55;21018;-36
2021/12/14 10:09:59;;;;;;;176.57;131.48;;;21.20;48.20;;;;;;4747546;58;21512;-33
2021/12/14 10:15:00;;;;;;;184.50;134.70;;;21.20;48.10;;;;;;4782664;55;21045;-35
2021/12/14 10:20:03;;;;;;;196.63;142.07;;;21.30;48.20;;;;;;4787320;55;21039;-25
2021/12/14 10:25:12;;;;;;;188.05;138.00;;;21.30;48.10;;;;;;4754724;55;21009;-32
2021/12/14 10:30:19;;;;;;;193.18;144.23;;;21.30;48.00;;;;;;4777574;55;21508;-33
2021/12/14 10:35:24;;;;;;;;;;;21.30;48.00;;;;;;4873545;55;20994;-36
2021/12/14 10:46:15;;;;;;;198.07;146.50;;;21.30;48.20;;;;;;4747988;55;21070;-35
2021/12/14 10:51:22;;;;;;;201.82;146.00;;;21.30;48.40;;;;;;4746438;55;21041;-38
2021/12/14 10:57:13;;;;;;;200.13;144.05;;;21.40;48.40;;;;;;4817024;55;21061;-37
2021/12/14 11:02:15;;;;;;;201.37;150.73;;;21.40;48.60;;;;;;4748503;55;21033;-44
2021/12/14 11:07:53;;;;;;;211.37;158.63;;;21.40;48.80;;;;;;4934757;55;21500;-32
2021/12/14 11:13:01;;;;;;;209.73;154.12;;;21.40;48.90;;;;;;4775689;55;20993;-37
2021/12/14 11:18:11;;;;;;;226.15;163.05;;;21.40;49.00;;;;;;4747571;58;21014;-35
2021/12/14 11:23:19;;;;;;;211.93;156.75;;;21.40;49.00;;;;;;4939587;55;21480;-38
2021/12/14 11:28:30;;;;;;;215.55;162.20;;;21.50;49.20;;;;;;4809492;55;21142;-32
2021/12/14 11:33:46;;;;;;;219.90;159.63;;;21.50;49.30;;;;;;4747880;58;21503;-34
2021/12/14 11:39:36;;;;;;;221.30;160.05;;;21.50;49.20;;;;;;4751667;55;21069;-33
2021/12/14 11:44:51;;;;;;;212.32;159.75;;;21.50;49.40;;;;;;4870953;55;21535;-37
2021/12/14 11:50:05;;;;;;;221.37;166.25;;;21.50;49.40;;;;;;4948016;55;21138;-32
2021/12/14 11:56:15;;;;;;;218.25;162.70;;;21.50;49.70;;;;;;4747900;58;21025;-32
2021/12/14 12:01:47;;;;;;;220.02;166.35;;;21.50;49.80;;;;;;4808421;55;21491;-35
2021/12/14 12:12:41;;;;;;;224.18;170.25;;;21.60;50.00;;;;;;4969855;55;21037;-29
2021/12/14 12:17:51;;;;;;;225.20;172.37;;;21.50;50.00;;;;;;4766876;55;21049;-32
2021/12/14 12:23:11;;;;;;;225.38;176.75;;;21.60;50.10;;;;;;4747871;58;20985;-32
2021/12/14 12:28:21;;;;;;;239.30;182.20;;;21.60;50.10;;;;;;4795235;55;21021;-36
2021/12/14 12:38:36;;;;;;;234.25;181.48;;;21.60;50.40;;;;;;4916698;55;21045;-44
2021/12/14 12:44:00;;;;;;;246.15;193.73;;;21.60;50.40;;;;;;4747222;54;21456;-34
2021/12/14 12:50:36;;;;;;;242.18;186.00;;;21.50;50.20;;;;;;4759939;55;21057;-32
2021/12/14 12:55:37;;;;;;;250.30;192.00;;;21.50;50.00;;;;;;4774499;54;21017;-29
2021/12/14 13:00:52;;;;;;;252.77;196.93;;;21.40;49.90;;;;;;4748479;55;20986;-34
2021/12/14 13:06:04;;;;;;;248.23;193.15;;;21.40;49.60;;;;;;4815782;55;21511;-37
2021/12/14 13:11:40;;;;;;;258.67;203.05;;;21.40;49.50;;;;;;4746935;58;21006;-35
2021/12/14 13:16:48;;;;;;;259.50;207.07;;;21.50;49.70;;;;;;4747888;58;21471;-29
2021/12/14 13:21:57;;;;;;;263.25;211.48;;;21.50;50.40;;;;;;4822839;55;21580;-35
2021/12/14 13:27:10;;;;;;;257.25;202.00;;;21.50;49.80;;;;;;4816380;55;21559;-30
2021/12/14 13:32:56;;;;;;;248.90;194.15;;;21.50;50.00;;;;;;4940019;55;20997;-38
2021/12/14 13:38:01;;;;;;;250.98;195.93;;;21.60;50.20;;;;;;4987363;54;22113;-32
2021/12/14 13:44:03;;;;;;;263.52;207.95;;;21.50;50.10;;;;;;4747608;58;21461;-39
2021/12/14 13:49:04;;;;;;;259.75;200.35;;;21.50;50.40;;;;;;4828239;55;21013;-33
2021/12/14 13:54:05;;;;;;;274.45;217.75;;;21.60;50.40;;;;;;4778941;54;20990;-32
2021/12/14 13:59:07;;;;;;;265.87;214.60;;;21.60;50.40;;;;;;4811853;55;21089;-29
2021/12/14 14:04:11;;;;;;;265.35;209.30;;;21.60;50.60;;;;;;4763207;55;21053;-36
2021/12/14 14:09:25;;;;;;;264.98;214.10;;;21.60;50.70;;;;;;4801201;55;22305;-31
2021/12/14 14:14:33;;;;;;;261.00;207.70;;;21.60;50.80;;;;;;4747625;58;21495;-35
2021/12/14 14:19:46;;;;;;;264.10;211.35;;;21.60;50.80;;;;;;4799041;55;21499;-32
2021/12/14 14:24:58;;;;;;;261.15;204.32;;;21.60;51.00;;;;;;4835404;55;21002;-35
2021/12/14 14:29:59;;;;;;;262.48;207.80;;;21.60;51.10;;;;;;4812640;54;21041;-34
2021/12/14 14:35:01;;;;;;;265.77;208.30;;;21.60;51.20;;;;;;4772024;55;21566;-35
2021/12/14 14:40:13;;;;;;;258.23;209.27;;;21.60;51.30;;;;;;4946199;55;21061;-35
2021/12/14 14:45:21;;;;;;;259.20;206.13;;;21.60;51.30;;;;;;4875302;55;21120;-28
2021/12/14 14:50:35;;;;;;;259.40;208.82;;;21.60;51.30;;;;;;4812134;55;21053;-32
2021/12/14 14:55:52;;;;;;;250.65;201.12;;;21.60;51.60;;;;;;4858966;55;21495;-33
2021/12/14 15:01:30;;;;;;;256.63;204.82;;;21.60;51.60;;;;;;4747367;55;21001;-32
2021/12/14 15:06:36;;;;;;;245.60;194.68;;;21.60;51.60;;;;;;4871961;55;21476;-33
2021/12/14 15:11:53;;;;;;;246.65;190.40;;;21.50;51.60;;;;;;4856128;55;21555;-30
2021/12/14 15:17:13;;;;;;;253.48;205.05;;;21.50;51.60;;;;;;4831637;55;21456;-28
2021/12/14 15:22:28;;;;;;;255.27;205.10;;;21.50;51.60;;;;;;4746513;58;20986;-33
2021/12/14 15:27:55;;;;;;;249.15;203.65;;;21.50;51.80;;;;;;4787926;55;21500;-28
2021/12/14 15:33:17;;;;;;;244.90;193.10;;;21.50;51.90;;;;;;4771610;55;21599;-33
2021/12/14 15:38:30;;;;;;;243.45;194.43;;;21.50;51.80;;;;;;4835100;55;21014;-31
2021/12/14 15:43:37;;;;;;;249.05;195.48;;;21.40;51.60;;;;;;4795557;55;21128;-31
2021/12/14 15:48:44;;;;;;;250.07;197.17;;;21.40;51.40;;;;;;4798327;55;21512;-32
2021/12/14 15:53:49;;;;;;;255.93;200.73;;;21.40;51.40;;;;;;4860355;55;21068;-36
2021/12/14 15:59:02;;;;;;;259.75;206.23;;;21.40;51.40;;;;;;5103743;55;21018;-35
2021/12/14 16:04:12;;;;;;;252.57;204.18;;;21.40;51.40;;;;;;4795390;55;21531;-36
2021/12/14 16:09:19;;;;;;;251.00;202.95;;;21.30;51.20;;;;;;4848182;55;21073;-36
2021/12/14 16:19:46;;;;;;;249.85;199.05;;;21.20;51.00;;;;;;4747897;55;21121;-35
2021/12/14 16:25:01;;;;;;;261.87;209.43;;;21.20;50.90;;;;;;4840183;55;21159;-34
2021/12/14 16:30:06;;;;;;;255.32;209.18;;;21.10;50.80;;;;;;4747421;58;21030;-34
2021/12/14 16:35:08;;;;;;;264.20;214.85;;;21.10;50.70;;;;;;4759786;55;21017;-35
2021/12/14 16:40:10;;;;;;;268.40;213.75;;;21.00;50.60;;;;;;4748090;58;20974;-36
2021/12/14 16:45:11;;;;;;;259.65;205.18;;;21.00;50.50;;;;;;4967057;55;21002;-35
2021/12/14 16:50:23;;;;;;;262.55;214.57;;;21.00;50.40;;;;;;4769048;55;21004;-34
2021/12/14 16:55:29;;;;;;;260.27;212.45;;;21.00;50.30;;;;;;4748114;58;21057;-34
2021/12/14 17:00:38;;;;;;;266.35;217.05;;;20.90;50.20;;;;;;4789501;55;21069;-36
2021/12/14 17:05:43;;;;;;;272.30;217.82;;;21.00;50.20;;;;;;4747837;58;21061;-37
2021/12/14 17:10:46;;;;;;;265.67;214.65;;;20.90;50.00;;;;;;4777644;55;21014;-36
2021/12/14 17:15:51;;;;;;;261.70;209.62;;;20.90;50.00;;;;;;4769858;55;21002;-35
2021/12/14 17:20:55;;;;;;;266.88;215.65;;;20.90;50.00;;;;;;4893154;55;21135;-34
2021/12/14 17:26:01;;;;;;;263.37;208.93;;;20.90;49.90;;;;;;4748284;58;21085;-36
2021/12/14 17:31:05;;;;;;;261.42;210.38;;;20.80;49.80;;;;;;4916074;55;21077;-34
2021/12/14 17:36:09;;;;;;;266.02;217.00;;;20.90;49.80;;;;;;5085681;55;21500;-36
2021/12/14 17:41:10;;;;;;;252.90;205.20;;;20.90;49.70;;;;;;4748434;55;20973;-33
2021/12/14 17:46:11;;;;;;;252.00;202.93;;;20.90;49.70;;;;;;4906881;55;21073;-35
2021/12/14 17:51:12;;;;;;;268.92;214.25;;;20.80;49.60;;;;;;4747326;58;20997;-35
2021/12/14 17:56:14;;;;;;;259.10;210.57;;;20.80;49.50;;;;;;4759748;55;21666;-32
2021/12/14 18:01:23;;;;;;;263.55;214.70;;;20.80;49.40;;;;;;4748045;58;21468;-35
2021/12/14 18:06:27;;;;;;;262.75;212.35;;;20.80;49.40;;;;;;4748112;58;21595;-35
2021/12/14 18:11:37;;;;;;;271.98;217.93;;;20.80;49.40;;;;;;4797905;55;21006;-36
2021/12/14 18:17:10;;;;;;;267.13;213.62;;;20.80;49.30;;;;;;4978701;55;21584;-36
2021/12/14 18:22:17;;;;;;;269.25;215.62;;;20.80;49.30;;;;;;4834673;55;21456;-35
2021/12/14 18:27:29;;;;;;;264.98;211.82;;;20.80;49.30;;;;;;4905183;55;21134;-35
2021/12/14 18:32:32;;;;;;;263.67;211.02;;;20.70;49.10;;;;;;4889124;55;21536;-34
2021/12/14 18:37:33;;;;;;;274.05;218.85;;;20.70;49.10;;;;;;4795213;55;21472;-36
2021/12/14 18:42:36;;;;;;;278.58;224.70;;;20.70;49.00;;;;;;4873221;55;21053;-34
2021/12/14 18:53:23;;;;;;;275.20;220.52;;;20.70;48.90;;;;;;5035578;55;21472;-35
2021/12/14 18:59:26;;;;;;;266.00;213.73;;;20.70;48.90;;;;;;4793467;55;21527;-36
2021/12/14 19:04:36;;;;;;;270.65;218.40;;;20.70;48.90;;;;;;4747988;58;20974;-35
2021/12/14 19:09:48;;;;;;;279.63;225.25;;;20.70;48.80;;;;;;4813702;55;21125;-36
2021/12/14 19:15:13;;;;;;;277.85;220.57;;;20.70;48.80;;;;;;4808214;55;21030;-36
2021/12/14 19:20:18;;;;;;;272.67;216.88;;;20.70;48.70;;;;;;4765727;55;21001;-34
2021/12/14 19:25:25;;;;;;;270.23;215.23;;;20.70;48.70;;;;;;4785623;55;20986;-37
2021/12/14 19:30:27;;;;;;;272.25;214.93;;;20.60;48.70;;;;;;4748020;58;21030;-36
2021/12/14 19:35:39;;;;;;;271.35;215.20;;;20.70;48.70;;;;;;4776579;55;20982;-35
2021/12/14 19:40:57;;;;;;;272.23;219.60;;;20.60;48.60;;;;;;4782091;55;20994;-36
2021/12/14 19:46:02;;;;;;;268.37;215.00;;;20.60;48.50;;;;;;4884902;55;21053;-36
2021/12/14 19:51:15;;;;;;;283.83;225.35;;;20.60;48.50;;;;;;4977012;55;21061;-36
2021/12/14 19:56:21;;;;;;;271.45;218.02;;;20.60;48.50;;;;;;4893273;55;20989;-35
2021/12/14 20:01:26;;;;;;;278.55;223.38;;;20.60;48.40;;;;;;4835179;55;21053;-35
2021/12/14 20:06:33;;;;;;;272.73;222.60;;;20.60;48.40;;;;;;4830987;55;21478;-36
2021/12/14 20:11:41;;;;;;;275.70;219.27;;;20.60;48.40;;;;;;4995490;55;21014;-33
2021/12/14 20:16:46;;;;;;;279.48;224.98;;;20.60;48.30;;;;;;4883557;55;21021;-36
2021/12/14 20:21:52;;;;;;;264.75;211.10;;;20.60;48.30;;;;;;4883214;55;21000;-29
2021/12/14 20:27:10;;;;;;;276.55;218.35;;;20.60;48.20;;;;;;5179998;54;21492;-36
2021/12/14 20:32:18;;;;;;;273.08;219.18;;;20.60;48.20;;;;;;4747400;58;21005;-35
2021/12/14 20:37:23;;;;;;;282.80;222.05;;;20.60;48.20;;;;;;4748443;58;21009;-36
2021/12/14 20:42:35;;;;;;;278.35;225.10;;;20.50;48.10;;;;;;4748465;58;21065;-36
2021/12/14 20:47:40;;;;;;;274.50;219.10;;;20.50;48.10;;;;;;4812758;55;21468;-36
2021/12/14 20:52:41;;;;;;;270.20;220.40;;;20.50;48.00;;;;;;4748409;58;21009;-36
2021/12/14 20:57:54;;;;;;;276.27;221.40;;;20.60;48.10;;;;;;5045793;55;21069;-36
2021/12/14 21:02:55;;;;;;;277.98;223.35;;;20.50;48.00;;;;;;4748696;58;21041;-36
2021/12/14 21:08:15;;;;;;;280.75;222.15;;;20.50;48.00;;;;;;4748397;58;21029;-36
2021/12/14 21:13:38;;;;;;;274.02;218.40;;;20.50;47.90;;;;;;4795285;55;21058;-36
2021/12/14 21:18:39;;;;;;;274.48;216.98;;;20.50;48.00;;;;;;4855967;55;21005;-32
2021/12/14 21:23:40;;;;;;;276.35;220.18;;;20.50;47.90;;;;;;4753088;55;21468;-35
2021/12/14 21:28:43;;;;;;;276.62;222.07;;;20.50;47.80;;;;;;4763703;54;21061;-35
2021/12/14 21:33:48;;;;;;;273.48;218.68;;;20.50;47.80;;;;;;4890669;55;21078;-34
2021/12/14 21:38:58;;;;;;;282.45;228.12;;;20.50;47.70;;;;;;4969903;55;21005;-34
2021/12/14 21:52:45;;;;;;;276.50;216.75;;;20.50;47.70;;;;;;4808816;55;21089;-36
2021/12/14 21:57:53;;;;;;;276.05;219.57;;;20.50;47.60;;;;;;5022005;55;21548;-36
2021/12/14 22:02:56;;;;;;;;;;;20.50;47.60;;;;;;4752065;55;20978;-34
2021/12/14 22:08:01;;;;;;;269.85;213.45;;;20.50;47.60;;;;;;4935875;55;20335;-32
2021/12/14 22:13:06;;;;;;;278.30;221.50;;;20.50;47.60;;;;;;4981188;55;21487;-37
2021/12/14 22:18:07;;;;;;;272.52;214.00;;;20.40;47.50;;;;;;4826481;55;21100;-33
2021/12/14 22:23:08;;;;;;;271.45;211.85;;;20.40;47.50;;;;;;4890525;55;21018;-35
2021/12/14 22:28:09;;;;;;;268.37;212.30;;;20.40;47.40;;;;;;4747755;58;21033;-33
2021/12/14 22:33:15;;;;;;;273.55;215.05;;;20.40;47.30;;;;;;4885036;55;21073;-35
2021/12/14 22:38:18;;;;;;;263.98;209.02;;;20.50;47.40;;;;;;5168969;55;21010;-34
2021/12/14 22:48:42;;;;;;;255.00;201.60;;;20.40;47.20;;;;;;4747865;55;21022;-35
2021/12/14 22:53:44;;;;;;;249.85;194.77;;;20.40;47.20;;;;;;5177569;55;21491;-35
2021/12/14 22:58:46;;;;;;;266.63;209.75;;;20.40;47.20;;;;;;4795717;55;21166;-34
2021/12/14 23:03:51;;;;;;;260.52;205.70;;;20.40;47.20;;;;;;4903839;55;21005;-33
2021/12/14 23:08:53;;;;;;;256.63;194.37;;;20.40;47.20;;;;;;4849989;55;21500;-35
2021/12/14 23:14:03;;;;;;;260.70;205.45;;;20.40;47.20;;;;;;4844882;55;21064;-35
2021/12/14 23:19:19;;;;;;;259.05;196.73;;;20.40;47.10;;;;;;4748552;58;20990;-34
2021/12/14 23:30:27;;;;;;;253.68;200.02;;;20.40;47.00;;;;;;4747258;55;21085;-34
2021/12/14 23:35:32;;;;;;;245.93;188.73;;;20.40;47.00;;;;;;4840852;55;21122;-35
2021/12/14 23:40:34;;;;;;;246.77;188.18;;;20.40;46.90;;;;;;5116218;55;21084;-34
2021/12/14 23:45:40;;;;;;;258.95;200.82;;;20.40;46.80;;;;;;5068652;55;20978;-34
2021/12/14 23:50:49;;;;;;;247.45;192.40;;;20.30;46.80;;;;;;4792213;55;21085;-34
2021/12/14 23:55:50;;;;;;;252.10;196.45;;;20.40;47.40;;;;;;4791832;55;21057;-35
